Time;durP1;ratioP1;P1;durP2;ratioP2;P2;SDS_P1;SDS_P2;PMS_P1;PMS_P2;Temp;Humidity;BMP_temperature;BMP_pressure;BME280_temperature;BME280_humidity;BME280_pressure;Samples;Min_cycle;Max_cycle;Signal;HPM_P1;HPM_P2
2023/09/06 00:00:55;;;;;;;3.53;2.85;;;;;;;;;;5055619;28;20056;-58
2023/09/06 00:03:21;;;;;;;4.80;2.85;;;;;;;;;;5054805;28;20049;-58
2023/09/06 00:05:47;;;;;;;6.15;2.90;;;;;;;;;;5054749;28;20033;-58
2023/09/06 00:08:16;;;;;;;5.05;2.42;;;;;;;;;;5054406;28;20348;-59
2023/09/06 00:10:42;;;;;;;3.45;2.83;;;;;;;;;;5055151;28;20033;-59
2023/09/06 00:13:08;;;;;;;3.13;2.13;;;;;;;;;;5053111;28;20025;-59
2023/09/06 00:15:35;;;;;;;3.75;2.75;;;;;;;;;;5054552;28;20021;-59
2023/09/06 00:18:05;;;;;;;4.43;2.75;;;;;;;;;;5053162;28;20036;-59
2023/09/06 00:20:34;;;;;;;3.83;2.58;;;;;;;;;;5055070;28;20029;-59
2023/09/06 00:23:01;;;;;;;3.70;2.47;;;;;;;;;;5054658;28;20028;-58
2023/09/06 00:25:28;;;;;;;4.30;3.38;;;;;;;;;;5053621;28;20025;-58
2023/09/06 00:27:55;;;;;;;3.47;2.45;;;;;;;;;;5054347;28;20083;-58
2023/09/06 00:30:21;;;;;;;3.63;3.00;;;;;;;;;;5055046;28;20036;-58
2023/09/06 00:32:52;;;;;;;5.47;3.33;;;;;;;;;;5054758;28;20028;-58
2023/09/06 00:35:18;;;;;;;3.25;2.72;;;;;;;;;;5054784;28;20112;-58
2023/09/06 00:37:44;;;;;;;3.58;2.75;;;;;;;;;;5054675;28;20447;-58
2023/09/06 00:40:18;;;;;;;3.70;3.03;;;;;;;;;;5054435;28;20025;-58
2023/09/06 00:42:49;;;;;;;3.42;2.78;;;;;;;;;;5054180;28;20025;-58
2023/09/06 00:45:23;;;;;;;4.72;2.95;;;;;;;;;;5054270;28;20049;-58
2023/09/06 00:47:50;;;;;;;3.63;2.67;;;;;;;;;;5054032;28;20025;-58
2023/09/06 00:50:16;;;;;;;3.38;2.65;;;;;;;;;;5054430;28;20025;-59
2023/09/06 00:52:42;;;;;;;5.18;3.00;;;;;;;;;;5054219;28;20025;-58
2023/09/06 00:55:09;;;;;;;6.05;3.45;;;;;;;;;;5053612;28;20459;-58
2023/09/06 00:57:35;;;;;;;4.68;2.78;;;;;;;;;;5053867;28;20036;-58
2023/09/06 01:00:06;;;;;;;5.20;3.38;;;;;;;;;;5054158;28;20173;-58
2023/09/06 01:02:32;;;;;;;5.22;2.85;;;;;;;;;;5053954;28;20032;-58
2023/09/06 01:04:58;;;;;;;3.47;2.55;;;;;;;;;;5054359;28;20506;-60
2023/09/06 01:07:26;;;;;;;4.53;2.55;;;;;;;;;;5053654;28;20064;-57
2023/09/06 01:09:52;;;;;;;3.55;2.45;;;;;;;;;;5054388;28;20021;-57
2023/09/06 01:12:18;;;;;;;5.00;2.83;;;;;;;;;;5053612;28;20383;-57
2023/09/06 01:14:44;;;;;;;5.75;3.17;;;;;;;;;;5053256;28;20013;-57
2023/09/06 01:17:12;;;;;;;4.43;3.13;;;;;;;;;;5053492;28;20074;-57
2023/09/06 01:19:40;;;;;;;4.30;2.80;;;;;;;;;;5053545;28;20459;-57
2023/09/06 01:22:18;;;;;;;3.63;2.83;;;;;;;;;;5053174;28;20029;-57
2023/09/06 01:24:44;;;;;;;4.20;2.95;;;;;;;;;;5054003;28;20056;-57
2023/09/06 01:27:12;;;;;;;3.47;2.65;;;;;;;;;;5053410;28;20021;-57
2023/09/06 01:29:38;;;;;;;9.23;3.03;;;;;;;;;;5053897;28;20090;-57
2023/09/06 01:32:05;;;;;;;5.30;2.88;;;;;;;;;;5053402;28;20102;-57
2023/09/06 01:34:31;;;;;;;5.00;2.85;;;;;;;;;;5053645;28;20032;-57
2023/09/06 01:36:57;;;;;;;5.80;3.40;;;;;;;;;;5053244;28;20041;-57
2023/09/06 01:39:23;;;;;;;4.43;2.17;;;;;;;;;;5053364;28;20029;-57
2023/09/06 01:41:49;;;;;;;4.28;2.35;;;;;;;;;;5053267;28;20455;-57
2023/09/06 01:44:14;;;;;;;3.15;2.42;;;;;;;;;;5053397;28;20032;-57
2023/09/06 01:46:41;;;;;;;3.80;2.90;;;;;;;;;;5053523;28;20438;-57
2023/09/06 01:49:08;;;;;;;4.47;2.38;;;;;;;;;;5053831;28;20029;-57
2023/09/06 01:51:34;;;;;;;3.72;2.90;;;;;;;;;;5053033;28;20501;-57
2023/09/06 01:54:02;;;;;;;4.13;2.95;;;;;;;;;;5053587;28;20475;-57
2023/09/06 01:56:28;;;;;;;4.00;2.40;;;;;;;;;;5057686;28;20060;-57
2023/09/06 01:58:53;;;;;;;4.43;2.63;;;;;;;;;;5056880;28;20110;-57
2023/09/06 02:01:20;;;;;;;3.50;2.35;;;;;;;;;;5057326;28;20056;-57
2023/09/06 02:03:46;;;;;;;3.53;2.80;;;;;;;;;;5057526;28;20483;-57
2023/09/06 02:06:12;;;;;;;4.35;2.85;;;;;;;;;;5056508;28;20033;-58
2023/09/06 02:08:40;;;;;;;4.82;2.92;;;;;;;;;;5057004;28;20057;-57
2023/09/06 02:11:06;;;;;;;5.93;3.22;;;;;;;;;;5057449;28;20033;-57
2023/09/06 02:13:32;;;;;;;4.40;3.03;;;;;;;;;;5056924;28;20059;-57
2023/09/06 02:16:00;;;;;;;4.13;3.00;;;;;;;;;;5056545;28;20079;-57
2023/09/06 02:18:29;;;;;;;4.00;3.08;;;;;;;;;;5056732;28;20107;-57
2023/09/06 02:20:56;;;;;;;4.07;2.92;;;;;;;;;;5057329;28;20029;-57
2023/09/06 02:23:22;;;;;;;4.70;3.00;;;;;;;;;;5056361;28;20021;-57
2023/09/06 02:25:48;;;;;;;5.80;3.35;;;;;;;;;;5056699;28;20025;-57
2023/09/06 02:28:17;;;;;;;5.35;2.72;;;;;;;;;;5056382;28;20021;-57
2023/09/06 02:30:43;;;;;;;4.20;2.60;;;;;;;;;;5057087;28;20057;-57
2023/09/06 02:33:11;;;;;;;3.40;2.45;;;;;;;;;;5057110;28;20033;-57
2023/09/06 02:35:40;;;;;;;6.15;3.35;;;;;;;;;;5056168;28;20021;-57
2023/09/06 02:38:06;;;;;;;4.28;2.88;;;;;;;;;;5056584;28;20053;-57
2023/09/06 02:40:32;;;;;;;3.72;2.78;;;;;;;;;;5057103;28;20025;-57
2023/09/06 02:42:58;;;;;;;3.75;2.60;;;;;;;;;;5056794;28;20150;-57
2023/09/06 02:45:36;;;;;;;4.32;2.75;;;;;;;;;;5056327;28;20024;-57
2023/09/06 02:48:06;;;;;;;4.47;3.00;;;;;;;;;;5056819;28;20025;-57
2023/09/06 02:50:34;;;;;;;3.97;3.15;;;;;;;;;;5056699;28;20060;-57
2023/09/06 02:53:01;;;;;;;5.10;3.50;;;;;;;;;;5056061;28;20035;-57
2023/09/06 02:55:27;;;;;;;4.43;3.00;;;;;;;;;;5056694;28;20029;-57
2023/09/06 02:57:54;;;;;;;3.80;2.35;;;;;;;;;;5056323;28;20021;-58
2023/09/06 03:00:24;;;;;;;3.20;2.80;;;;;;;;;;5056535;28;20032;-57
2023/09/06 03:02:52;;;;;;;3.40;2.70;;;;;;;;;;5055954;28;20051;-57
2023/09/06 03:05:18;;;;;;;4.18;2.95;;;;;;;;;;5055497;28;20036;-57
2023/09/06 03:07:48;;;;;;;3.60;2.92;;;;;;;;;;5055901;28;20027;-57
2023/09/06 03:10:15;;;;;;;5.25;2.97;;;;;;;;;;5055830;28;20025;-57
2023/09/06 03:12:43;;;;;;;4.28;3.00;;;;;;;;;;5055814;28;20044;-57
2023/09/06 03:15:10;;;;;;;7.93;2.67;;;;;;;;;;5055756;28;20051;-57
2023/09/06 03:17:36;;;;;;;7.30;3.25;;;;;;;;;;5055665;28;20070;-57
2023/09/06 03:20:18;;;;;;;4.68;2.88;;;;;;;;;;5055957;28;20028;-57
2023/09/06 03:22:46;;;;;;;4.55;3.00;;;;;;;;;;5056442;28;20033;-57
2023/09/06 03:25:14;;;;;;;4.22;2.90;;;;;;;;;;5056065;28;20089;-57
2023/09/06 03:27:41;;;;;;;3.25;2.28;;;;;;;;;;5056005;28;20029;-57
2023/09/06 03:30:08;;;;;;;4.05;2.97;;;;;;;;;;5056139;28;20021;-57
2023/09/06 03:32:33;;;;;;;3.80;3.33;;;;;;;;;;5055977;28;20067;-57
2023/09/06 03:35:00;;;;;;;7.45;3.40;;;;;;;;;;5055918;28;20021;-57
2023/09/06 03:37:28;;;;;;;3.47;2.72;;;;;;;;;;5055086;28;20068;-57
2023/09/06 03:39:54;;;;;;;6.60;3.45;;;;;;;;;;5055795;28;20463;-57
2023/09/06 03:42:23;;;;;;;5.30;4.10;;;;;;;;;;5055218;28;20060;-57
2023/09/06 03:44:49;;;;;;;3.83;3.03;;;;;;;;;;5055084;28;20021;-57
2023/09/06 03:47:15;;;;;;;6.22;3.78;;;;;;;;;;5055642;28;20053;-57
2023/09/06 03:49:43;;;;;;;4.75;3.70;;;;;;;;;;5056111;28;20029;-57
2023/09/06 03:52:09;;;;;;;6.35;3.60;;;;;;;;;;5055043;28;20090;-57
2023/09/06 03:54:35;;;;;;;6.57;4.15;;;;;;;;;;5055046;28;20421;-57
2023/09/06 03:57:05;;;;;;;4.88;4.15;;;;;;;;;;5054922;28;20060;-57
2023/09/06 03:59:37;;;;;;;5.85;3.92;;;;;;;;;;5055754;28;20033;-57
2023/09/06 04:02:07;;;;;;;4.97;3.65;;;;;;;;;;5055447;28;20025;-57
2023/09/06 04:04:34;;;;;;;3.97;2.97;;;;;;;;;;5054907;28;20059;-57
2023/09/06 04:07:00;;;;;;;5.25;3.13;;;;;;;;;;5054798;28;20478;-57
2023/09/06 04:09:30;;;;;;;4.10;3.22;;;;;;;;;;5055387;28;20439;-57
2023/09/06 04:11:59;;;;;;;5.45;3.83;;;;;;;;;;5055239;28;20471;-57
2023/09/06 04:14:25;;;;;;;4.25;3.28;;;;;;;;;;5054693;28;20047;-56
2023/09/06 04:16:51;;;;;;;5.65;3.80;;;;;;;;;;5054555;28;20467;-56
2023/09/06 04:19:17;;;;;;;5.28;3.53;;;;;;;;;;5055541;28;20069;-57
2023/09/06 04:21:47;;;;;;;5.05;3.75;;;;;;;;;;5054792;28;20478;-57
2023/09/06 04:24:13;;;;;;;7.25;3.35;;;;;;;;;;5055072;28;20017;-57
2023/09/06 04:26:39;;;;;;;3.85;3.45;;;;;;;;;;5054169;28;20021;-57
2023/09/06 04:29:06;;;;;;;5.32;3.15;;;;;;;;;;5054704;28;20063;-57
2023/09/06 04:31:32;;;;;;;5.65;3.78;;;;;;;;;;5054155;28;20360;-57
2023/09/06 04:33:58;;;;;;;4.13;2.85;;;;;;;;;;5054784;28;20032;-57
2023/09/06 04:36:24;;;;;;;4.07;2.75;;;;;;;;;;5054151;28;20021;-57
2023/09/06 04:38:50;;;;;;;4.30;3.08;;;;;;;;;;5054779;28;20071;-58
2023/09/06 04:41:16;;;;;;;3.70;3.05;;;;;;;;;;5054197;28;20040;-57
2023/09/06 04:43:42;;;;;;;4.85;4.05;;;;;;;;;;5054390;28;20028;-57
2023/09/06 04:46:08;;;;;;;3.80;2.85;;;;;;;;;;5053976;28;20378;-57
2023/09/06 04:48:36;;;;;;;4.22;3.08;;;;;;;;;;5054552;28;20469;-57
2023/09/06 04:51:02;;;;;;;3.78;3.45;;;;;;;;;;5054863;28;20039;-57
2023/09/06 04:53:28;;;;;;;4.22;3.25;;;;;;;;;;5053675;28;20112;-57
2023/09/06 04:55:54;;;;;;;3.58;2.65;;;;;;;;;;5054441;28;20078;-57
2023/09/06 04:58:20;;;;;;;4.72;4.18;;;;;;;;;;5053860;28;20418;-58
2023/09/06 05:00:50;;;;;;;6.35;3.33;;;;;;;;;;5054501;28;20033;-58
2023/09/06 05:03:19;;;;;;;5.47;3.87;;;;;;;;;;5053898;28;20091;-58
2023/09/06 05:05:47;;;;;;;4.75;3.85;;;;;;;;;;5054033;28;20247;-57
2023/09/06 05:08:13;;;;;;;4.40;3.58;;;;;;;;;;5053670;28;20427;-58
2023/09/06 05:10:39;;;;;;;7.75;3.78;;;;;;;;;;5054148;28;20039;-59
2023/09/06 05:13:07;;;;;;;5.32;3.95;;;;;;;;;;5053684;28;20058;-59
2023/09/06 05:15:34;;;;;;;5.25;4.30;;;;;;;;;;5053616;28;20103;-59
2023/09/06 05:18:00;;;;;;;6.40;4.15;;;;;;;;;;5053601;28;20033;-59
2023/09/06 05:20:27;;;;;;;3.33;2.83;;;;;;;;;;5053676;28;20136;-59
2023/09/06 05:23:01;;;;;;;4.63;3.55;;;;;;;;;;5053549;28;20024;-59
2023/09/06 05:25:27;;;;;;;5.13;3.65;;;;;;;;;;5053565;28;20032;-59
2023/09/06 05:28:03;;;;;;;6.63;4.38;;;;;;;;;;5053501;28;20032;-59
2023/09/06 05:30:29;;;;;;;5.03;4.10;;;;;;;;;;5053960;28;20031;-59
2023/09/06 05:32:56;;;;;;;4.40;3.40;;;;;;;;;;5054010;28;20115;-59
2023/09/06 05:35:22;;;;;;;5.05;4.13;;;;;;;;;;5053967;28;20021;-59
2023/09/06 05:37:48;;;;;;;4.63;3.92;;;;;;;;;;5053934;28;20053;-59
2023/09/06 05:40:15;;;;;;;4.47;3.28;;;;;;;;;;5054225;28;20056;-59
2023/09/06 05:42:41;;;;;;;5.57;4.40;;;;;;;;;;5053889;28;20375;-59
2023/09/06 05:45:12;;;;;;;4.95;3.92;;;;;;;;;;5053126;28;20021;-59
2023/09/06 05:47:38;;;;;;;6.70;4.13;;;;;;;;;;5053312;28;20466;-59
2023/09/06 05:50:05;;;;;;;4.18;3.47;;;;;;;;;;5053772;28;20107;-59
2023/09/06 05:52:31;;;;;;;4.70;3.38;;;;;;;;;;5053344;28;20021;-59
2023/09/06 05:54:57;;;;;;;4.97;3.47;;;;;;;;;;5053213;28;20478;-59
2023/09/06 05:57:24;;;;;;;4.38;3.35;;;;;;;;;;5053172;28;20029;-59
2023/09/06 05:59:50;;;;;;;5.25;4.07;;;;;;;;;;5053671;28;20032;-59
2023/09/06 06:02:16;;;;;;;4.88;3.63;;;;;;;;;;5053679;28;20482;-59
2023/09/06 06:04:45;;;;;;;7.18;4.05;;;;;;;;;;5052877;28;20438;-59
2023/09/06 06:07:11;;;;;;;6.43;3.45;;;;;;;;;;5053115;28;20045;-59
2023/09/06 06:09:37;;;;;;;3.47;3.03;;;;;;;;;;5053607;28;20029;-59
2023/09/06 06:12:03;;;;;;;4.28;3.63;;;;;;;;;;5052794;28;20378;-59
2023/09/06 06:14:30;;;;;;;4.95;3.80;;;;;;;;;;5053035;28;20025;-58
2023/09/06 06:16:57;;;;;;;5.80;3.92;;;;;;;;;;5053026;28;20053;-59
2023/09/06 06:19:23;;;;;;;4.25;3.63;;;;;;;;;;5053875;28;20478;-59
2023/09/06 06:21:50;;;;;;;6.00;3.78;;;;;;;;;;5052922;28;20472;-59
2023/09/06 06:24:16;;;;;;;6.88;4.00;;;;;;;;;;5052926;28;20022;-59
2023/09/06 06:26:42;;;;;;;7.40;3.67;;;;;;;;;;5053373;28;20048;-59
2023/09/06 06:29:08;;;;;;;4.10;3.47;;;;;;;;;;5053764;28;20017;-59
2023/09/06 06:31:34;;;;;;;4.65;3.38;;;;;;;;;;5053365;28;20032;-59
2023/09/06 06:34:00;;;;;;;4.93;3.55;;;;;;;;;;5052827;28;20025;-59
2023/09/06 06:36:26;;;;;;;5.22;3.85;;;;;;;;;;5052765;28;20136;-60
2023/09/06 06:38:52;;;;;;;5.82;3.40;;;;;;;;;;5053506;28;20021;-59
2023/09/06 06:41:22;;;;;;;5.40;3.72;;;;;;;;;;5055358;28;20029;-59
2023/09/06 06:43:51;;;;;;;4.05;3.25;;;;;;;;;;5057087;28;20025;-59
2023/09/06 06:46:24;;;;;;;4.53;3.35;;;;;;;;;;5056025;28;20077;-59
2023/09/06 06:48:51;;;;;;;5.30;3.88;;;;;;;;;;5056569;28;20370;-59
2023/09/06 06:51:16;;;;;;;5.43;4.03;;;;;;;;;;5056676;28;20028;-59
2023/09/06 06:53:42;;;;;;;4.45;3.90;;;;;;;;;;5055879;28;20025;-59
2023/09/06 06:56:08;;;;;;;4.57;3.95;;;;;;;;;;5056097;28;20096;-59
2023/09/06 06:58:34;;;;;;;3.72;3.33;;;;;;;;;;5056650;28;20033;-59
2023/09/06 07:01:00;;;;;;;4.15;3.42;;;;;;;;;;5056978;28;20417;-59
2023/09/06 07:03:28;;;;;;;4.50;3.42;;;;;;;;;;5056157;28;20409;-59
2023/09/06 07:05:55;;;;;;;6.50;4.22;;;;;;;;;;5056478;28;20025;-59
2023/09/06 07:08:23;;;;;;;4.57;3.90;;;;;;;;;;5056405;28;20108;-59
2023/09/06 07:10:49;;;;;;;5.53;4.25;;;;;;;;;;5055565;28;20025;-59
2023/09/06 07:13:15;;;;;;;5.40;3.50;;;;;;;;;;5055712;28;20086;-59
2023/09/06 07:15:43;;;;;;;6.32;3.55;;;;;;;;;;5056354;28;20120;-59
2023/09/06 07:18:09;;;;;;;4.60;3.38;;;;;;;;;;5055832;28;20036;-59
2023/09/06 07:20:35;;;;;;;4.38;3.60;;;;;;;;;;5056117;28;20339;-59
2023/09/06 07:23:01;;;;;;;5.60;4.25;;;;;;;;;;5056502;28;20082;-59
2023/09/06 07:25:31;;;;;;;7.93;3.80;;;;;;;;;;5055737;28;20487;-59
2023/09/06 07:27:59;;;;;;;4.78;2.95;;;;;;;;;;5055645;28;20048;-59
2023/09/06 07:30:25;;;;;;;4.72;4.20;;;;;;;;;;5056005;28;20432;-59
2023/09/06 07:32:51;;;;;;;4.85;3.92;;;;;;;;;;5056078;28;20033;-60
2023/09/06 07:35:17;;;;;;;4.25;3.85;;;;;;;;;;5055539;28;20111;-60
2023/09/06 07:37:43;;;;;;;5.18;3.95;;;;;;;;;;5055183;28;20100;-60
2023/09/06 07:40:10;;;;;;;8.05;4.20;;;;;;;;;;5055639;28;20469;-60
2023/09/06 07:42:39;;;;;;;6.80;4.72;;;;;;;;;;5055502;28;20029;-59
2023/09/06 07:45:06;;;;;;;4.13;3.72;;;;;;;;;;5055227;28;20017;-60
2023/09/06 07:47:32;;;;;;;4.68;3.75;;;;;;;;;;5055230;28;20029;-60
2023/09/06 07:49:58;;;;;;;4.28;3.65;;;;;;;;;;5055249;28;20063;-59
2023/09/06 07:52:24;;;;;;;5.38;3.60;;;;;;;;;;5053980;28;20032;-59
2023/09/06 07:54:50;;;;;;;4.78;3.95;;;;;;;;;;5055560;28;20057;-60
2023/09/06 07:57:16;;;;;;;4.93;3.35;;;;;;;;;;5055512;28;20029;-60
2023/09/06 07:59:42;;;;;;;5.50;4.07;;;;;;;;;;5055304;28;20075;-60
2023/09/06 08:02:08;;;;;;;8.13;4.75;;;;;;;;;;5055241;28;20459;-60
2023/09/06 08:04:34;;;;;;;6.43;4.25;;;;;;;;;;5054947;28;20047;-60
2023/09/06 08:07:01;;;;;;;5.35;4.85;;;;;;;;;;5054817;28;20025;-60
2023/09/06 08:09:27;;;;;;;6.70;4.10;;;;;;;;;;5055493;28;20517;-60
2023/09/06 08:11:53;;;;;;;5.65;4.15;;;;;;;;;;5054725;28;20045;-60
2023/09/06 08:14:19;;;;;;;5.30;4.57;;;;;;;;;;5055255;28;20060;-59
2023/09/06 08:16:45;;;;;;;8.07;4.07;;;;;;;;;;5054717;28;20036;-60
2023/09/06 08:19:11;;;;;;;8.27;4.55;;;;;;;;;;5055189;28;20032;-60
2023/09/06 08:21:37;;;;;;;4.05;3.50;;;;;;;;;;5054928;28;20032;-60
2023/09/06 08:24:03;;;;;;;6.25;3.85;;;;;;;;;;5054850;28;20025;-60
2023/09/06 08:26:29;;;;;;;9.50;4.57;;;;;;;;;;5054470;28;20528;-60
2023/09/06 08:28:56;;;;;;;7.15;5.03;;;;;;;;;;5054731;28;20056;-60
2023/09/06 08:31:22;;;;;;;5.40;4.32;;;;;;;;;;5054321;28;20025;-60
2023/09/06 08:33:48;;;;;;;5.20;4.03;;;;;;;;;;5054406;28;20035;-60
2023/09/06 08:36:14;;;;;;;5.68;3.63;;;;;;;;;;5054415;28;20104;-60
2023/09/06 08:38:40;;;;;;;5.05;4.05;;;;;;;;;;5054399;28;20021;-60
2023/09/06 08:41:09;;;;;;;4.35;3.60;;;;;;;;;;5054760;28;20060;-60
2023/09/06 08:43:36;;;;;;;6.18;3.70;;;;;;;;;;5054998;28;20029;-60
2023/09/06 08:46:03;;;;;;;4.30;3.15;;;;;;;;;;5054086;28;20013;-59
2023/09/06 08:48:29;;;;;;;5.53;3.75;;;;;;;;;;5054101;28;20475;-60
2023/09/06 08:50:56;;;;;;;4.90;3.75;;;;;;;;;;5054872;28;20036;-60
2023/09/06 08:53:22;;;;;;;4.60;3.40;;;;;;;;;;5054281;28;20061;-60
2023/09/06 08:55:48;;;;;;;6.57;4.10;;;;;;;;;;5053635;28;20360;-60
2023/09/06 08:58:14;;;;;;;5.50;3.83;;;;;;;;;;5053867;28;20031;-60
2023/09/06 09:00:40;;;;;;;6.18;4.35;;;;;;;;;;5054271;28;20037;-60
2023/09/06 09:03:06;;;;;;;3.95;3.20;;;;;;;;;;5054053;28;20032;-60
2023/09/06 09:05:32;;;;;;;6.57;3.63;;;;;;;;;;5054056;28;20021;-60
2023/09/06 09:07:59;;;;;;;4.60;3.40;;;;;;;;;;5053862;28;20148;-60
2023/09/06 09:10:29;;;;;;;4.03;3.55;;;;;;;;;;5053725;28;20037;-60
2023/09/06 09:12:56;;;;;;;4.18;3.63;;;;;;;;;;5054312;28;20056;-60
2023/09/06 09:15:25;;;;;;;4.43;3.58;;;;;;;;;;5053673;28;20022;-60
2023/09/06 09:17:51;;;;;;;3.80;3.40;;;;;;;;;;5053656;28;20080;-60
2023/09/06 09:20:18;;;;;;;5.45;3.42;;;;;;;;;;5053981;28;20029;-60
2023/09/06 09:22:45;;;;;;;4.15;3.72;;;;;;;;;;5053967;28;20393;-60
2023/09/06 09:25:23;;;;;;;6.47;3.60;;;;;;;;;;5053697;28;20024;-60
2023/09/06 09:27:56;;;;;;;5.63;3.53;;;;;;;;;;5054161;28;20082;-60
2023/09/06 09:30:22;;;;;;;5.13;3.70;;;;;;;;;;5053449;28;20060;-60
2023/09/06 09:32:48;;;;;;;5.13;3.67;;;;;;;;;;5054303;28;20481;-60
2023/09/06 09:35:14;;;;;;;4.82;3.80;;;;;;;;;;5053461;28;20065;-60
2023/09/06 09:37:41;;;;;;;3.95;3.55;;;;;;;;;;5054141;28;20467;-60
2023/09/06 09:40:17;;;;;;;5.25;3.67;;;;;;;;;;5053811;28;20025;-60
2023/09/06 09:42:55;;;;;;;5.57;3.45;;;;;;;;;;5053205;28;20021;-60
2023/09/06 09:45:25;;;;;;;4.60;2.78;;;;;;;;;;5053210;28;20074;-60
2023/09/06 09:47:54;;;;;;;5.27;3.10;;;;;;;;;;5054237;28;20040;-60
2023/09/06 09:50:25;;;;;;;4.35;3.60;;;;;;;;;;5053766;28;20286;-60
2023/09/06 09:52:52;;;;;;;4.93;3.38;;;;;;;;;;5053311;28;20387;-60
2023/09/06 09:55:20;;;;;;;3.88;3.17;;;;;;;;;;5053806;28;20017;-60
2023/09/06 09:57:46;;;;;;;3.63;3.05;;;;;;;;;;5054040;28;20044;-60
2023/09/06 10:00:15;;;;;;;6.40;4.30;;;;;;;;;;5053771;28;20311;-60
2023/09/06 10:02:45;;;;;;;4.23;3.17;;;;;;;;;;5053442;28;20028;-60
2023/09/06 10:05:12;;;;;;;3.67;3.28;;;;;;;;;;5053205;28;20636;-60
2023/09/06 10:07:41;;;;;;;3.22;2.90;;;;;;;;;;5053163;28;20034;-60
2023/09/06 10:10:10;;;;;;;6.15;3.95;;;;;;;;;;5053623;28;20029;-60
2023/09/06 10:12:36;;;;;;;5.57;4.40;;;;;;;;;;5053348;28;20025;-60
2023/09/06 10:15:02;;;;;;;4.13;3.38;;;;;;;;;;5053203;28;20031;-60
2023/09/06 10:17:29;;;;;;;4.50;3.80;;;;;;;;;;5056713;28;20025;-60
2023/09/06 10:19:55;;;;;;;4.45;4.00;;;;;;;;;;5057405;28;20366;-60
2023/09/06 10:22:21;;;;;;;3.97;3.53;;;;;;;;;;5056896;28;20025;-60
2023/09/06 10:24:51;;;;;;;5.25;4.28;;;;;;;;;;5056718;28;20029;-60
2023/09/06 10:27:17;;;;;;;6.38;4.28;;;;;;;;;;5057580;28;20112;-60
2023/09/06 10:29:53;;;;;;;6.50;3.33;;;;;;;;;;5057314;28;20159;-60
2023/09/06 10:32:19;;;;;;;4.28;3.22;;;;;;;;;;5056997;28;20044;-60
2023/09/06 10:34:45;;;;;;;7.40;3.80;;;;;;;;;;5056631;28;20187;-60
2023/09/06 10:37:11;;;;;;;5.85;4.00;;;;;;;;;;5057164;28;20091;-60
2023/09/06 10:39:47;;;;;;;5.28;3.72;;;;;;;;;;5056444;28;20021;-60
2023/09/06 10:42:17;;;;;;;4.25;3.83;;;;;;;;;;5057072;28;20025;-60
2023/09/06 10:44:55;;;;;;;5.90;3.78;;;;;;;;;;5056425;28;20462;-60
2023/09/06 10:47:25;;;;;;;4.72;3.40;;;;;;;;;;5056386;28;20075;-60
2023/09/06 10:50:09;;;;;;;5.75;3.58;;;;;;;;;;5056373;28;20421;-60
2023/09/06 10:52:42;;;;;;;4.72;3.83;;;;;;;;;;5056806;28;20128;-60
2023/09/06 10:55:13;;;;;;;3.50;2.72;;;;;;;;;;5056290;28;20017;-60
2023/09/06 10:57:46;;;;;;;5.28;3.75;;;;;;;;;;5056204;28;20467;-60
2023/09/06 11:00:18;;;;;;;4.97;3.50;;;;;;;;;;5056205;28;20036;-60
2023/09/06 11:02:44;;;;;;;4.35;3.53;;;;;;;;;;5056682;28;20108;-60
2023/09/06 11:05:14;;;;;;;4.10;3.38;;;;;;;;;;5056027;28;20493;-60
2023/09/06 11:07:44;;;;;;;5.47;4.05;;;;;;;;;;5055984;28;20033;-60
2023/09/06 11:10:10;;;;;;;4.53;3.47;;;;;;;;;;5056699;28;20033;-60
2023/09/06 11:12:37;;;;;;;5.00;3.65;;;;;;;;;;5055888;28;20443;-60
2023/09/06 11:15:05;;;;;;;7.70;3.97;;;;;;;;;;5055812;28;20021;-60
2023/09/06 11:17:31;;;;;;;4.13;3.13;;;;;;;;;;5055753;28;20061;-60
2023/09/06 11:20:09;;;;;;;9.70;3.97;;;;;;;;;;5055804;28;20025;-60
2023/09/06 11:22:35;;;;;;;4.28;3.50;;;;;;;;;;5056357;28;20391;-60
2023/09/06 11:25:04;;;;;;;6.60;3.53;;;;;;;;;;5055682;28;20024;-60
2023/09/06 11:27:33;;;;;;;9.85;4.15;;;;;;;;;;5055382;28;20387;-60
2023/09/06 11:30:21;;;;;;;3.70;3.23;;;;;;;;;;5056340;28;20442;-60
2023/09/06 11:32:47;;;;;;;5.47;3.78;;;;;;;;;;5055491;28;20116;-60
2023/09/06 11:35:14;;;;;;;5.28;3.50;;;;;;;;;;5055416;28;20028;-60
2023/09/06 11:37:44;;;;;;;4.45;3.75;;;;;;;;;;5055524;28;20052;-60
2023/09/06 11:40:15;;;;;;;4.20;3.65;;;;;;;;;;5055298;28;20494;-60
2023/09/06 11:42:41;;;;;;;4.35;3.58;;;;;;;;;;5055236;28;20036;-60
2023/09/06 11:45:09;;;;;;;4.68;4.18;;;;;;;;;;5055173;28;20108;-61
2023/09/06 11:47:37;;;;;;;8.07;3.65;;;;;;;;;;5055195;28;20032;-60
2023/09/06 11:50:06;;;;;;;5.80;3.80;;;;;;;;;;5055642;28;20025;-60
2023/09/06 11:52:33;;;;;;;4.53;3.55;;;;;;;;;;5055070;28;20029;-60
2023/09/06 11:55:05;;;;;;;4.72;3.67;;;;;;;;;;5055600;28;20356;-60
2023/09/06 11:57:32;;;;;;;3.72;3.17;;;;;;;;;;5055215;28;20443;-60
2023/09/06 11:59:58;;;;;;;5.07;3.67;;;;;;;;;;5055574;28;20056;-60
2023/09/06 12:02:34;;;;;;;4.15;3.20;;;;;;;;;;5055770;28;20052;-60
2023/09/06 12:05:03;;;;;;;3.83;2.90;;;;;;;;;;5055483;28;20043;-60
2023/09/06 12:07:31;;;;;;;3.08;2.70;;;;;;;;;;5055379;28;20086;-60
2023/09/06 12:09:58;;;;;;;3.92;3.53;;;;;;;;;;5055133;28;20028;-60
2023/09/06 12:12:24;;;;;;;4.22;3.83;;;;;;;;;;5055162;28;20053;-60
2023/09/06 12:14:53;;;;;;;4.85;3.60;;;;;;;;;;5054228;28;20033;-60
2023/09/06 12:17:19;;;;;;;5.05;3.65;;;;;;;;;;5054660;28;20406;-60
2023/09/06 12:19:45;;;;;;;3.88;3.35;;;;;;;;;;5055285;28;20113;-60
2023/09/06 12:22:17;;;;;;;4.55;3.03;;;;;;;;;;5054869;28;20056;-60
2023/09/06 12:24:46;;;;;;;4.03;3.15;;;;;;;;;;5054548;28;20029;-60
2023/09/06 12:27:14;;;;;;;4.28;3.63;;;;;;;;;;5054495;28;20060;-60
2023/09/06 12:29:40;;;;;;;5.63;3.05;;;;;;;;;;5054974;28;20068;-60
2023/09/06 12:32:08;;;;;;;6.05;3.60;;;;;;;;;;5054437;28;20104;-60
2023/09/06 12:34:34;;;;;;;4.93;3.20;;;;;;;;;;5054874;28;20364;-60
2023/09/06 12:37:00;;;;;;;4.40;3.45;;;;;;;;;;5054756;28;20052;-60
2023/09/06 12:39:26;;;;;;;4.40;3.05;;;;;;;;;;5054108;28;20021;-60
2023/09/06 12:41:52;;;;;;;3.35;2.97;;;;;;;;;;5054785;28;20028;-62
2023/09/06 12:44:18;;;;;;;4.47;3.08;;;;;;;;;;5054042;28;20451;-60
2023/09/06 12:46:44;;;;;;;7.13;3.47;;;;;;;;;;5053955;28;20024;-60
2023/09/06 12:49:10;;;;;;;4.68;3.25;;;;;;;;;;5054619;28;20071;-60
2023/09/06 12:51:37;;;;;;;3.55;3.17;;;;;;;;;;5053996;28;20025;-60
2023/09/06 12:54:03;;;;;;;4.28;2.80;;;;;;;;;;5053986;28;20029;-60
2023/09/06 12:56:29;;;;;;;4.07;3.05;;;;;;;;;;5053867;28;20074;-60
2023/09/06 12:58:55;;;;;;;4.25;3.45;;;;;;;;;;5053613;28;20017;-60
2023/09/06 13:01:21;;;;;;;5.13;3.78;;;;;;;;;;5054287;28;20051;-60
2023/09/06 13:03:48;;;;;;;4.03;2.88;;;;;;;;;;5053837;28;20100;-60
2023/09/06 13:06:14;;;;;;;3.95;3.25;;;;;;;;;;5054419;28;20066;-60
2023/09/06 13:08:41;;;;;;;5.00;3.30;;;;;;;;;;5054369;28;20029;-60
2023/09/06 13:11:07;;;;;;;4.07;3.38;;;;;;;;;;5053715;28;20067;-60
2023/09/06 13:13:34;;;;;;;3.80;3.17;;;;;;;;;;5054292;28;20057;-60
2023/09/06 13:16:00;;;;;;;4.50;3.03;;;;;;;;;;5053702;28;20025;-60
2023/09/06 13:18:27;;;;;;;4.18;3.38;;;;;;;;;;5053953;28;20070;-60
2023/09/06 13:20:54;;;;;;;3.90;2.72;;;;;;;;;;5054169;28;20029;-60
2023/09/06 13:23:20;;;;;;;4.60;3.08;;;;;;;;;;5053579;28;20383;-60
2023/09/06 13:25:46;;;;;;;5.05;3.63;;;;;;;;;;5053586;28;20096;-60
2023/09/06 13:28:12;;;;;;;5.38;3.50;;;;;;;;;;5053784;28;20455;-60
2023/09/06 13:30:38;;;;;;;4.05;3.22;;;;;;;;;;5053712;28;20079;-60
2023/09/06 13:33:04;;;;;;;9.85;3.20;;;;;;;;;;5053421;28;20033;-60
2023/09/06 13:35:29;;;;;;;3.90;3.35;;;;;;;;;;5053505;28;20033;-60
2023/09/06 13:37:56;;;;;;;4.15;2.85;;;;;;;;;;5053671;28;20168;-60
2023/09/06 13:40:23;;;;;;;4.43;3.25;;;;;;;;;;5053935;28;20036;-60
2023/09/06 13:42:49;;;;;;;4.80;3.30;;;;;;;;;;5053385;28;20485;-60
2023/09/06 13:45:15;;;;;;;4.90;3.88;;;;;;;;;;5053387;28;20029;-60
2023/09/06 13:47:42;;;;;;;4.00;2.58;;;;;;;;;;5053062;28;20021;-60
2023/09/06 13:50:08;;;;;;;4.35;2.92;;;;;;;;;;5055295;28;20040;-60
2023/09/06 13:52:34;;;;;;;3.83;3.42;;;;;;;;;;5057508;28;20044;-60
2023/09/06 13:55:00;;;;;;;4.03;3.35;;;;;;;;;;5057458;28;20024;-60
2023/09/06 13:57:28;;;;;;;3.72;2.78;;;;;;;;;;5056932;28;20493;-60
2023/09/06 13:59:54;;;;;;;5.57;3.40;;;;;;;;;;5057821;28;20370;-60
2023/09/06 14:02:20;;;;;;;3.47;2.80;;;;;;;;;;5057509;28;20029;-60
2023/09/06 14:04:47;;;;;;;5.38;3.38;;;;;;;;;;5057346;28;20027;-60
2023/09/06 14:07:13;;;;;;;4.75;3.45;;;;;;;;;;5057046;28;20021;-60
2023/09/06 14:09:39;;;;;;;3.33;3.00;;;;;;;;;;5057367;28;20021;-60
2023/09/06 14:12:05;;;;;;;3.38;2.60;;;;;;;;;;5056894;28;20040;-60
2023/09/06 14:14:31;;;;;;;3.08;2.67;;;;;;;;;;5056553;28;20017;-60
2023/09/06 14:16:57;;;;;;;4.47;2.88;;;;;;;;;;5056729;28;20017;-60
2023/09/06 14:19:24;;;;;;;4.43;3.30;;;;;;;;;;5057525;28;20025;-60
2023/09/06 14:21:51;;;;;;;3.33;3.03;;;;;;;;;;5056869;28;20036;-60
2023/09/06 14:24:17;;;;;;;5.50;2.97;;;;;;;;;;5057341;28;20057;-60
2023/09/06 14:26:43;;;;;;;3.58;3.05;;;;;;;;;;5056812;28;20053;-60
2023/09/06 14:29:10;;;;;;;4.47;3.05;;;;;;;;;;5057634;28;20028;-60
2023/09/06 14:31:38;;;;;;;4.22;3.13;;;;;;;;;;5056626;28;20029;-60
2023/09/06 14:34:04;;;;;;;3.15;2.65;;;;;;;;;;5057183;28;20109;-60
2023/09/06 14:36:30;;;;;;;4.22;2.97;;;;;;;;;;5056566;28;20048;-60
2023/09/06 14:38:56;;;;;;;4.45;3.17;;;;;;;;;;5057204;28;20028;-60
2023/09/06 14:41:24;;;;;;;3.78;2.47;;;;;;;;;;5056522;28;20029;-60
2023/09/06 14:43:50;;;;;;;3.42;2.78;;;;;;;;;;5056534;28;20481;-60